Time;durP1;ratioP1;P1;durP2;ratioP2;P2;SDS_P1;SDS_P2;PMS_P1;PMS_P2;Temp;Humidity;BMP_temperature;BMP_pressure;BME280_temperature;BME280_humidity;BME280_pressure;Samples;Min_cycle;Max_cycle;Signal;HPM_P1;HPM_P2
2023/06/29 00:01:55;;;;;;;7.18;3.22;;;;;;;15.28;nan;100576.47;5034795;28;20034;-68
2023/06/29 00:04:21;;;;;;;5.93;3.00;;;;;;;15.30;nan;100586.84;5035832;28;20094;-67
2023/06/29 00:06:49;;;;;;;7.00;3.50;;;;;;;15.26;nan;100594.50;5030799;28;20049;-68
2023/06/29 00:09:16;;;;;;;5.45;3.17;;;;;;;15.12;nan;100588.00;5040436;28;20097;-68
2023/06/29 00:11:43;;;;;;;6.07;3.58;;;;;;;15.05;nan;100590.84;5037456;28;20052;-68
2023/06/29 00:14:08;;;;;;;7.22;3.90;;;;;;;14.78;nan;100563.50;5035302;28;20021;-71
2023/06/29 00:16:35;;;;;;;5.40;3.58;;;;;;;14.82;nan;100585.81;5034732;28;20012;-68
2023/06/29 00:19:01;;;;;;;7.68;3.85;;;;;;;14.82;nan;100604.38;5035905;28;20032;-68
2023/06/29 00:21:28;;;;;;;6.82;3.58;;;;;;;14.66;nan;100590.94;5036145;28;20469;-68
2023/06/29 00:23:54;;;;;;;5.03;3.50;;;;;;;14.62;nan;100599.63;5031132;28;20029;-68
2023/06/29 00:26:20;;;;;;;5.65;3.83;;;;;;;14.64;nan;100611.59;5036000;28;20017;-68
2023/06/29 00:28:45;;;;;;;5.40;3.95;;;;;;;14.58;nan;100603.81;5034832;28;20074;-67
2023/06/29 00:31:10;;;;;;;6.25;4.28;;;;;;;14.55;nan;100597.16;5032256;28;20033;-68
2023/06/29 00:33:36;;;;;;;5.55;3.83;;;;;;;14.32;nan;100571.69;5036756;28;20025;-69
2023/06/29 00:36:01;;;;;;;5.80;4.38;;;;;;;14.41;nan;100594.06;5036878;28;20052;-69
2023/06/29 00:38:26;;;;;;;7.32;4.20;;;;;;;14.41;nan;100595.88;5035677;28;20067;-69
2023/06/29 00:40:52;;;;;;;7.82;4.25;;;;;;;14.34;nan;100585.50;5037988;28;20021;-69
2023/06/29 00:43:18;;;;;;;7.68;3.88;;;;;;;14.34;nan;100601.38;5033825;28;20112;-69
2023/06/29 00:45:43;;;;;;;6.53;4.20;;;;;;;14.31;nan;100601.06;5036766;28;20037;-69
2023/06/29 00:48:09;;;;;;;8.05;4.18;;;;;;;14.22;nan;100590.91;5034495;28;20017;-69
2023/06/29 00:50:35;;;;;;;6.80;4.63;;;;;;;14.14;nan;100591.28;5042316;28;20039;-69
2023/06/29 00:53:01;;;;;;;9.98;4.47;;;;;;;14.07;nan;100595.16;5035200;28;20663;-69
2023/06/29 00:55:27;;;;;;;7.38;4.28;;;;;;;13.88;nan;100578.75;5037582;28;20053;-68
2023/06/29 00:57:52;;;;;;;9.77;4.93;;;;;;;13.89;nan;100597.03;5035287;28;20028;-68
2023/06/29 01:00:18;;;;;;;7.30;4.25;;;;;;;13.79;nan;100597.69;5036434;28;20095;-68
2023/06/29 01:02:44;;;;;;;6.22;4.38;;;;;;;13.71;nan;100603.38;5037854;28;20017;-66
2023/06/29 01:05:11;;;;;;;7.65;4.53;;;;;;;13.59;nan;100602.63;5035455;28;20562;-69
2023/06/29 01:07:44;;;;;;;7.65;4.50;;;;;;;13.46;nan;100598.47;5036346;28;20100;-69
2023/06/29 01:10:11;;;;;;;7.40;4.53;;;;;;;13.39;nan;100600.47;5033585;28;20451;-69
2023/06/29 01:12:39;;;;;;;10.10;4.65;;;;;;;13.28;nan;100585.44;5032315;28;20017;-69
2023/06/29 01:15:05;;;;;;;9.02;5.43;;;;;;;13.26;nan;100593.56;5066446;28;20549;-69
2023/06/29 01:17:32;;;;;;;8.27;5.22;;;;;;;13.25;nan;100601.78;5034404;28;20109;-69
2023/06/29 01:19:59;;;;;;;6.85;4.60;;;;;;;13.20;nan;100595.34;5033390;28;20171;-69
2023/06/29 01:22:32;;;;;;;7.43;4.75;;;;;;;13.16;nan;100585.47;5036734;28;20671;-69
2023/06/29 01:24:59;;;;;;;7.82;4.68;;;;;;;13.13;nan;100583.31;5040979;28;20042;-69
2023/06/29 01:27:25;;;;;;;9.07;5.00;;;;;;;13.09;nan;100582.16;5034450;28;20017;-69
2023/06/29 01:29:55;;;;;;;9.25;4.80;;;;;;;13.08;nan;100584.03;5034285;28;20036;-69
2023/06/29 01:32:21;;;;;;;8.52;4.95;;;;;;;13.03;nan;100576.00;5035527;28;20387;-69
2023/06/29 01:34:47;;;;;;;7.22;4.72;;;;;;;13.09;nan;100584.81;5033930;28;20096;-69
2023/06/29 01:37:23;;;;;;;6.80;4.50;;;;;;;12.99;nan;100580.94;5038258;28;20014;-69
2023/06/29 01:39:59;;;;;;;9.70;4.82;;;;;;;13.01;nan;100579.91;5032662;28;20063;-69
2023/06/29 01:42:26;;;;;;;6.63;4.50;;;;;;;12.99;nan;100582.78;5034502;28;20021;-68
2023/06/29 01:44:54;;;;;;;9.65;4.80;;;;;;;12.92;nan;100577.63;5033553;28;20056;-69
2023/06/29 01:47:21;;;;;;;10.68;4.95;;;;;;;12.88;nan;100576.53;5033775;28;20487;-69
2023/06/29 01:49:47;;;;;;;8.20;5.00;;;;;;;12.77;nan;100567.59;5037282;28;20041;-69
2023/06/29 01:52:13;;;;;;;11.20;4.60;;;;;;;12.82;nan;100588.03;5035112;28;20635;-67
2023/06/29 01:54:38;;;;;;;6.93;4.65;;;;;;;12.76;nan;100583.66;5035229;28;20017;-67
2023/06/29 01:57:07;;;;;;;9.00;4.07;;;;;;;12.82;nan;100595.94;5034509;28;20048;-67
2023/06/29 01:59:33;;;;;;;7.70;4.20;;;;;;;12.75;nan;100584.72;5034646;28;20025;-67
2023/06/29 02:01:58;;;;;;;8.50;4.78;;;;;;;12.67;nan;100582.44;5033837;28;20026;-68
2023/06/29 02:04:24;;;;;;;6.57;4.93;;;;;;;12.62;nan;100582.31;5036918;28;20071;-68
2023/06/29 02:06:49;;;;;;;9.30;4.45;;;;;;;12.54;nan;100583.50;5038297;28;20441;-67
2023/06/29 02:09:15;;;;;;;7.10;4.80;;;;;;;12.55;nan;100588.56;5037633;28;20445;-69
2023/06/29 02:11:40;;;;;;;6.45;4.18;;;;;;;12.49;nan;100586.03;5037066;28;20045;-67
2023/06/29 02:14:06;;;;;;;7.70;4.32;;;;;;;12.47;nan;100586.25;5037496;28;20626;-66
2023/06/29 02:16:31;;;;;;;10.38;4.90;;;;;;;12.45;nan;100587.53;5037485;28;20017;-66
2023/06/29 02:18:57;;;;;;;9.30;4.50;;;;;;;12.36;nan;100588.94;5040190;28;20392;-68
2023/06/29 02:21:22;;;;;;;13.38;4.80;;;;;;;12.32;nan;100596.50;5036994;28;20478;-69
2023/06/29 02:23:47;;;;;;;7.70;4.40;;;;;;;12.21;nan;100586.75;5036402;28;20035;-66
2023/06/29 02:26:13;;;;;;;6.65;4.47;;;;;;;12.11;nan;100576.78;5037193;28;20064;-67
2023/06/29 02:28:38;;;;;;;8.07;5.30;;;;;;;12.07;nan;100580.94;5036880;28;20021;-67
2023/06/29 02:31:04;;;;;;;10.07;5.00;;;;;;;12.02;nan;100584.25;5037137;28;20021;-67
2023/06/29 02:33:29;;;;;;;10.85;4.57;;;;;;;11.96;nan;100589.63;5035001;28;20021;-67
2023/06/29 02:35:54;;;;;;;9.80;5.00;;;;;;;11.87;nan;100583.88;5037005;28;20071;-67
2023/06/29 02:38:20;;;;;;;6.53;4.40;;;;;;;11.84;nan;100589.59;5035442;28;20071;-67
2023/06/29 02:40:45;;;;;;;9.05;5.30;;;;;;;11.78;nan;100579.94;5036231;28;20100;-67
2023/06/29 02:43:11;;;;;;;11.05;5.28;;;;;;;11.68;nan;100572.59;5038145;28;20024;-67
2023/06/29 02:45:36;;;;;;;7.45;4.78;;;;;;;11.60;nan;100571.09;5036852;28;20033;-67
2023/06/29 02:48:02;;;;;;;9.13;4.85;;;;;;;11.71;nan;100590.63;5037613;28;20095;-68
2023/06/29 02:50:27;;;;;;;8.00;5.32;;;;;;;11.66;nan;100595.75;5037312;28;20033;-67
2023/06/29 02:52:52;;;;;;;9.98;5.25;;;;;;;11.64;nan;100595.19;5036056;28;20024;-67
2023/06/29 02:55:21;;;;;;;7.95;4.65;;;;;;;11.55;nan;100580.72;5040514;28;20025;-67
2023/06/29 02:57:47;;;;;;;10.50;5.63;;;;;;;11.52;nan;100583.81;5038053;28;20033;-67
2023/06/29 03:00:13;;;;;;;8.48;5.55;;;;;;;11.59;nan;100608.25;5033552;28;20037;-68
2023/06/29 03:02:38;;;;;;;7.28;5.43;;;;;;;11.52;nan;100595.19;5035948;28;20047;-68
2023/06/29 03:05:04;;;;;;;8.88;5.60;;;;;;;11.36;nan;100575.53;5037684;28;20034;-67
2023/06/29 03:07:29;;;;;;;10.82;5.38;;;;;;;11.43;nan;100586.78;5034495;28;20146;-68
2023/06/29 03:09:54;;;;;;;12.30;6.35;;;;;;;11.50;nan;100594.59;5035325;28;20517;-69
2023/06/29 03:12:23;;;;;;;8.18;5.60;;;;;;;11.49;nan;100596.44;5039423;28;20024;-67
2023/06/29 03:14:48;;;;;;;13.20;5.97;;;;;;;11.47;nan;100595.06;5038390;28;20028;-67
2023/06/29 03:17:14;;;;;;;10.98;7.20;;;;;;;11.46;nan;100602.13;5037219;28;20021;-68
2023/06/29 03:19:40;;;;;;;10.27;6.63;;;;;;;11.44;nan;100598.13;5039190;28;20025;-68
2023/06/29 03:22:05;;;;;;;12.90;7.03;;;;;;;11.50;nan;100613.84;5034313;28;20530;-68
2023/06/29 03:24:31;;;;;;;12.68;6.82;;;;;;;11.47;nan;100616.16;5034132;28;20036;-68
2023/06/29 03:26:56;;;;;;;12.57;6.88;;;;;;;11.50;nan;100619.13;5036479;28;20392;-66
2023/06/29 03:29:21;;;;;;;18.23;7.60;;;;;;;11.49;nan;100614.06;5037749;28;20029;-67
2023/06/29 03:31:47;;;;;;;10.88;7.80;;;;;;;11.53;nan;100607.31;5035648;28;20036;-65
2023/06/29 03:34:13;;;;;;;11.35;7.18;;;;;;;11.55;nan;100613.19;5034546;28;20136;-66
2023/06/29 03:36:38;;;;;;;15.73;7.82;;;;;;;11.56;nan;100611.34;5037649;28;20024;-67
2023/06/29 03:39:04;;;;;;;11.82;7.68;;;;;;;11.57;nan;100619.03;5035678;28;20013;-68
2023/06/29 03:41:29;;;;;;;18.13;7.63;;;;;;;11.64;nan;100619.75;5037113;28;20020;-68
2023/06/29 03:43:55;;;;;;;151.63;35.92;;;;;;;11.77;nan;100618.72;5036395;28;20013;-66
2023/06/29 03:46:21;;;;;;;20.75;14.50;;;;;;;12.02;nan;100605.38;5034233;28;20026;-68
2023/06/29 03:48:46;;;;;;;13.13;8.43;;;;;;;12.10;nan;100612.13;5036745;28;20026;-68
2023/06/29 03:51:12;;;;;;;11.95;8.13;;;;;;;12.04;nan;100616.50;5035009;28;20028;-68
2023/06/29 03:53:37;;;;;;;15.45;8.00;;;;;;;11.99;nan;100621.66;5037148;28;20014;-67
2023/06/29 03:56:03;;;;;;;14.52;8.15;;;;;;;12.00;nan;100623.25;5036342;28;20055;-68
2023/06/29 03:58:28;;;;;;;13.63;8.43;;;;;;;11.94;nan;100607.53;5037712;28;20151;-68
2023/06/29 04:00:54;;;;;;;14.80;8.13;;;;;;;12.04;nan;100618.31;5035370;28;20107;-69
2023/06/29 04:03:19;;;;;;;15.07;8.45;;;;;;;12.05;nan;100618.09;5035571;28;20033;-68
2023/06/29 04:05:45;;;;;;;11.82;8.25;;;;;;;12.10;nan;100628.78;5033420;28;20541;-68
2023/06/29 04:08:10;;;;;;;13.13;8.65;;;;;;;12.17;nan;100623.38;5036486;28;20467;-68
2023/06/29 04:10:36;;;;;;;15.23;8.50;;;;;;;12.13;nan;100611.66;5037782;28;20075;-68
2023/06/29 04:13:01;;;;;;;20.85;8.98;;;;;;;12.22;nan;100626.13;5040094;28;20014;-69
2023/06/29 04:15:27;;;;;;;23.15;8.82;;;;;;;12.23;nan;100611.88;5038146;28;20067;-68
2023/06/29 04:17:52;;;;;;;12.50;8.77;;;;;;;12.37;nan;100624.88;5037160;28;20059;-69
2023/06/29 04:20:18;;;;;;;15.98;8.98;;;;;;;12.41;nan;100616.25;5035391;28;20024;-68
2023/06/29 04:22:43;;;;;;;19.13;9.73;;;;;;;12.48;nan;100622.22;5036124;28;20025;-69
2023/06/29 04:25:09;;;;;;;16.52;9.93;;;;;;;12.55;nan;100620.25;5032957;28;20029;-68
2023/06/29 04:27:34;;;;;;;13.30;9.90;;;;;;;12.53;nan;100617.03;5034218;28;20013;-69
2023/06/29 04:30:03;;;;;;;17.48;9.57;;;;;;;12.67;nan;100624.72;5032973;28;20024;-69
2023/06/29 04:32:29;;;;;;;18.05;9.90;;;;;;;12.71;nan;100623.19;5043615;28;20024;-68
2023/06/29 04:34:55;;;;;;;16.73;10.07;;;;;;;12.77;nan;100619.63;5033406;28;20391;-68
2023/06/29 04:37:20;;;;;;;15.82;9.50;;;;;;;12.85;nan;100613.97;5037754;28;20028;-68
2023/06/29 04:39:46;;;;;;;17.60;10.25;;;;;;;12.87;nan;100609.25;5038240;28;20020;-68
2023/06/29 04:42:13;;;;;;;13.85;9.70;;;;;;;12.93;nan;100600.41;5031750;28;20065;-68
2023/06/29 04:44:41;;;;;;;12.63;9.02;;;;;;;13.12;nan;100622.19;5037222;28;20032;-68
2023/06/29 04:47:06;;;;;;;15.65;9.50;;;;;;;13.18;nan;100623.84;5033344;28;20029;-70
2023/06/29 04:49:36;;;;;;;14.85;9.55;;;;;;;13.23;nan;100628.44;5033824;28;20051;-70
2023/06/29 04:52:02;;;;;;;17.42;8.93;;;;;;;13.31;nan;100622.81;5032790;28;20029;-70
2023/06/29 04:54:27;;;;;;;16.45;9.07;;;;;;;13.32;nan;100623.63;5036895;28;20569;-69
2023/06/29 04:56:54;;;;;;;15.30;9.35;;;;;;;13.36;nan;100614.16;5035720;28;20026;-69
2023/06/29 04:59:23;;;;;;;13.30;9.50;;;;;;;13.52;nan;100623.16;5032329;28;20025;-70
2023/06/29 05:01:49;;;;;;;12.00;8.85;;;;;;;13.58;nan;100623.00;5035672;28;20032;-69
2023/06/29 05:04:14;;;;;;;12.75;8.80;;;;;;;13.63;nan;100624.16;5032099;28;20026;-69
2023/06/29 05:06:39;;;;;;;16.00;8.73;;;;;;;13.73;nan;100624.31;5033664;28;20029;-69
2023/06/29 05:09:05;;;;;;;11.73;8.57;;;;;;;13.79;nan;100618.88;5034582;28;20541;-69
2023/06/29 05:11:30;;;;;;;13.23;8.18;;;;;;;13.99;nan;100636.91;5036779;28;20048;-69
2023/06/29 05:13:55;;;;;;;11.80;8.10;;;;;;;13.94;nan;100618.28;5031762;28;20045;-69
2023/06/29 05:16:21;;;;;;;11.18;8.30;;;;;;;14.05;nan;100616.59;5035443;28;20040;-70
2023/06/29 05:18:46;;;;;;;9.95;8.27;;;;;;;14.14;nan;100619.63;5034028;28;21807;-68
2023/06/29 05:21:13;;;;;;;12.35;7.63;;;;;;;14.28;nan;100639.44;5050809;28;20033;-70
2023/06/29 05:23:39;;;;;;;11.20;7.45;;;;;;;14.36;nan;100632.91;5034987;28;20032;-69
2023/06/29 05:26:04;;;;;;;11.23;8.07;;;;;;;14.43;nan;100634.34;5034200;28;20018;-69
2023/06/29 05:28:31;;;;;;;10.50;7.30;;;;;;;14.51;nan;100635.78;5032806;28;20022;-69
2023/06/29 05:30:56;;;;;;;13.60;7.10;;;;;;;14.58;nan;100638.28;5036425;28;20120;-69
2023/06/29 05:33:22;;;;;;;15.20;7.22;;;;;;;14.68;nan;100633.91;5034560;28;20013;-68
2023/06/29 05:35:47;;;;;;;11.95;7.38;;;;;;;14.75;nan;100630.25;5033241;28;20056;-68
2023/06/29 05:38:12;;;;;;;12.65;6.57;;;;;;;14.80;nan;100631.16;5036653;28;20400;-68
2023/06/29 05:40:38;;;;;;;11.35;7.40;;;;;;;14.89;nan;100632.31;5037548;28;20029;-68
2023/06/29 05:43:03;;;;;;;10.43;6.78;;;;;;;15.03;nan;100642.53;5038659;28;20072;-68
2023/06/29 05:45:29;;;;;;;14.38;6.35;;;;;;;15.12;nan;100640.25;5037586;28;20024;-68
2023/06/29 05:47:55;;;;;;;16.77;6.47;;;;;;;15.19;nan;100635.53;5042180;28;20020;-67
2023/06/29 05:50:20;;;;;;;13.48;6.88;;;;;;;15.22;nan;100619.13;5037348;28;20480;-68
2023/06/29 05:52:46;;;;;;;11.52;5.78;;;;;;;15.34;nan;100622.41;5038758;28;20128;-68
2023/06/29 05:55:11;;;;;;;9.25;6.15;;;;;;;15.48;nan;100630.78;5035371;28;20017;-68
2023/06/29 05:57:36;;;;;;;15.68;6.78;;;;;;;15.58;nan;100638.81;5038678;28;20029;-68
2023/06/29 06:00:07;;;;;;;11.38;5.90;;;;;;;;;;5040693;28;20075;-67
2023/06/29 06:02:32;;;;;;;10.18;5.75;;;;;;;;;;5038847;28;20045;-69
2023/06/29 06:04:57;;;;;;;12.60;5.60;;;;;;;;;;5037635;28;20480;-68
2023/06/29 06:07:27;;;;;;;9.87;6.33;;;;;;;;;;5035728;28;20036;-69
2023/06/29 06:09:52;;;;;;;8.75;5.20;;;;;;;;;;5034747;28;20526;-67
2023/06/29 06:12:17;;;;;;;6.87;5.13;;;;;;;;;;5037905;28;20061;-69
2023/06/29 06:14:42;;;;;;;8.83;5.40;;;;;;;;;;5037933;28;20049;-69
2023/06/29 06:17:08;;;;;;;8.03;5.37;;;;;;;;;;5037228;28;20277;-69
2023/06/29 06:19:33;;;;;;;8.57;5.47;;;;;;;;;;5037168;28;20372;-68
2023/06/29 06:21:58;;;;;;;8.40;6.17;;;;;;;;;;5036279;28;20310;-68
2023/06/29 06:24:23;;;;;;;9.70;5.63;;;;;;;;;;5039479;28;20274;-69
2023/06/29 06:26:49;;;;;;;9.57;5.63;;;;;;;;;;5034776;28;20392;-68
2023/06/29 06:29:14;;;;;;;10.30;5.40;;;;;;;;;;5041214;28;20044;-69
2023/06/29 06:31:40;;;;;;;8.57;5.15;;;;;;;;;;5036628;28;20281;-69
2023/06/29 06:34:05;;;;;;;9.10;5.38;;;;;;;16.82;nan;100629.84;5036837;28;20024;-69
2023/06/29 06:36:30;;;;;;;10.35;4.85;;;;;;;16.90;nan;100631.97;5035984;28;20017;-69
2023/06/29 06:38:56;;;;;;;7.88;5.32;;;;;;;16.98;nan;100634.16;5038243;28;20028;-69
2023/06/29 06:41:21;;;;;;;5.97;5.00;;;;;;;17.07;nan;100637.09;5039411;28;20064;-70
2023/06/29 06:43:46;;;;;;;7.13;4.97;;;;;;;17.13;nan;100625.41;5036722;28;20545;-70
2023/06/29 06:46:12;;;;;;;7.80;4.53;;;;;;;17.28;nan;100624.63;5038041;28;20136;-68
2023/06/29 06:48:37;;;;;;;6.57;4.80;;;;;;;17.31;nan;100618.78;5037847;28;20022;-67
2023/06/29 06:51:02;;;;;;;8.23;4.60;;;;;;;17.47;nan;100639.03;5037111;28;20021;-68
2023/06/29 06:53:28;;;;;;;7.53;4.82;;;;;;;17.53;nan;100632.66;5038190;28;20100;-68
2023/06/29 06:55:53;;;;;;;9.88;5.35;;;;;;;17.64;nan;100634.25;5037346;28;20059;-68
2023/06/29 06:58:19;;;;;;;8.30;4.40;;;;;;;17.68;nan;100631.06;5038281;28;20031;-68
2023/06/29 07:00:44;;;;;;;7.90;3.90;;;;;;;17.85;nan;100643.06;5037405;28;20431;-67
2023/06/29 07:03:09;;;;;;;8.23;4.28;;;;;;;17.92;nan;100636.69;5036460;28;20033;-68
2023/06/29 07:05:36;;;;;;;8.07;4.40;;;;;;;17.95;nan;100628.94;5037388;28;20017;-68
2023/06/29 07:08:01;;;;;;;8.88;5.07;;;;;;;18.12;nan;100630.50;5035597;28;20064;-69
2023/06/29 07:10:27;;;;;;;10.85;4.82;;;;;;;18.28;nan;100629.41;5034488;28;20523;-69
2023/06/29 07:12:52;;;;;;;6.45;4.40;;;;;;;18.33;nan;100625.94;5039933;28;20049;-68
2023/06/29 07:15:17;;;;;;;12.05;7.00;;;;;;;18.34;nan;100620.34;5037472;28;20436;-69
2023/06/29 07:17:43;;;;;;;7.75;4.05;;;;;;;18.40;nan;100621.91;5038197;28;20017;-68
2023/06/29 07:20:09;;;;;;;4.20;3.10;;;;;;;18.61;nan;100608.53;5033835;28;20017;-68
2023/06/29 07:22:34;;;;;;;5.45;3.08;;;;;;;18.92;nan;100628.69;5035872;28;20028;-68
2023/06/29 07:25:00;;;;;;;6.10;3.53;;;;;;;18.94;nan;100622.25;5038545;28;20680;-68
2023/06/29 07:27:25;;;;;;;6.00;3.42;;;;;;;18.96;nan;100620.13;5040741;28;20029;-68
2023/06/29 07:29:51;;;;;;;8.18;3.50;;;;;;;19.03;nan;100620.59;5034513;28;20946;-68
2023/06/29 07:32:16;;;;;;;7.25;3.50;;;;;;;19.06;nan;100612.88;5037560;28;20134;-69
2023/06/29 07:34:41;;;;;;;5.93;3.88;;;;;;;19.23;nan;100622.38;5038915;28;20025;-69
2023/06/29 07:37:07;;;;;;;6.30;3.75;;;;;;;19.41;nan;100623.56;5040946;28;20126;-68
2023/06/29 07:39:33;;;;;;;5.82;3.22;;;;;;;19.44;nan;100613.16;5040858;28;20017;-68
2023/06/29 07:41:58;;;;;;;6.00;3.25;;;;;;;19.49;nan;100609.63;5034717;28;20025;-68
2023/06/29 07:44:24;;;;;;;7.07;3.60;;;;;;;19.60;nan;100613.00;5038098;28;20156;-69
2023/06/29 07:46:49;;;;;;;4.57;3.20;;;;;;;19.72;nan;100614.25;5038870;28;20594;-69
2023/06/29 07:49:15;;;;;;;6.05;2.90;;;;;;;19.68;nan;100602.56;5033243;28;20151;-70
2023/06/29 07:51:40;;;;;;;5.80;3.15;;;;;;;19.80;nan;100601.38;5035522;28;20033;-69
2023/06/29 07:54:08;;;;;;;7.77;3.20;;;;;;;19.84;nan;100602.41;5035832;28;20095;-68
2023/06/29 07:56:33;;;;;;;4.82;2.55;;;;;;;19.86;nan;100605.59;5038809;28;20266;-68
2023/06/29 07:58:59;;;;;;;5.05;2.90;;;;;;;19.85;nan;100588.78;5035466;28;20099;-69
2023/06/29 08:01:24;;;;;;;6.43;3.00;;;;;;;20.01;nan;100600.09;5036218;28;20110;-69
2023/06/29 08:03:50;;;;;;;7.45;2.70;;;;;;;20.06;nan;100596.56;5032858;28;20025;-68
2023/06/29 08:06:15;;;;;;;4.15;2.78;;;;;;;20.06;nan;100589.34;5035029;28;20095;-69
2023/06/29 08:08:41;;;;;;;5.50;2.35;;;;;;;20.21;nan;100600.97;5034381;28;20009;-69
2023/06/29 08:11:06;;;;;;;3.00;2.00;;;;;;;20.22;nan;100591.88;5035545;28;20069;-69
2023/06/29 08:13:32;;;;;;;4.13;2.30;;;;;;;20.33;nan;100596.81;5041295;28;20022;-68
2023/06/29 08:15:58;;;;;;;3.53;2.00;;;;;;;20.52;nan;100588.84;5037576;28;20031;-67
2023/06/29 08:18:23;;;;;;;7.88;2.30;;;;;;;20.69;nan;100587.59;5040749;28;20383;-68
2023/06/29 08:20:49;;;;;;;4.80;1.92;;;;;;;20.71;nan;100583.56;5034953;28;20024;-67
2023/06/29 08:23:14;;;;;;;4.28;2.25;;;;;;;20.86;nan;100585.22;5037870;28;20017;-67
2023/06/29 08:25:40;;;;;;;3.60;2.03;;;;;;;20.87;nan;100577.97;5035656;28;20091;-67
2023/06/29 08:28:05;;;;;;;5.72;2.20;;;;;;;20.99;nan;100583.69;5035869;28;20415;-67
2023/06/29 08:30:31;;;;;;;3.53;2.17;;;;;;;21.12;nan;100596.38;5033980;28;20024;-67
2023/06/29 08:32:56;;;;;;;5.78;2.45;;;;;;;21.05;nan;100566.47;5036365;28;20033;-68
2023/06/29 08:35:22;;;;;;;7.50;2.42;;;;;;;21.26;nan;100596.41;5036216;28;20348;-68
2023/06/29 08:37:47;;;;;;;5.90;2.47;;;;;;;21.24;nan;100591.34;5033267;28;20017;-67
2023/06/29 08:40:17;;;;;;;4.07;2.17;;;;;;;21.24;nan;100583.31;5037207;28;20443;-67
2023/06/29 08:42:43;;;;;;;5.00;1.80;;;;;;;21.35;nan;100580.47;5035384;28;20484;-67
2023/06/29 08:45:09;;;;;;;7.32;2.22;;;;;;;21.39;nan;100584.97;5036537;28;20118;-67
2023/06/29 08:47:37;;;;;;;7.15;2.85;;;;;;;21.47;nan;100588.09;5033327;28;20482;-67
2023/06/29 08:50:05;;;;;;;5.00;2.30;;;;;;;21.55;nan;100584.72;5034221;28;20667;-67
2023/06/29 08:52:35;;;;;;;3.28;2.00;;;;;;;21.60;nan;100565.91;5038630;28;20444;-68
2023/06/29 08:55:00;;;;;;;;;;;;;;;21.83;nan;100581.00;5037695;28;20044;-68
2023/06/29 08:57:28;;;;;;;5.22;1.65;;;;;;;21.89;nan;100579.03;5033968;28;20326;-68
2023/06/29 08:59:53;;;;;;;4.47;1.90;;;;;;;21.99;nan;100589.56;5033473;28;20071;-68
2023/06/29 09:02:19;;;;;;;3.83;2.03;;;;;;;22.04;nan;100577.97;5033390;28;20025;-69
2023/06/29 09:04:44;;;;;;;4.25;2.03;;;;;;;22.12;nan;100574.56;5036217;28;20028;-68
2023/06/29 09:07:10;;;;;;;6.30;2.17;;;;;;;22.08;nan;100562.88;5035650;28;20403;-68
2023/06/29 09:09:35;;;;;;;5.57;2.60;;;;;;;22.19;nan;100568.81;5035265;28;20045;-68
2023/06/29 09:12:01;;;;;;;5.32;2.10;;;;;;;22.18;nan;100569.94;5038394;28;20483;-70
2023/06/29 09:14:32;;;;;;;4.05;1.88;;;;;;;22.19;nan;100574.97;5039861;28;20017;-69
2023/06/29 09:16:58;;;;;;;4.68;1.83;;;;;;;22.25;nan;100581.09;5039916;28;20051;-69
2023/06/29 09:19:24;;;;;;;6.95;2.60;;;;;;;22.25;nan;100568.47;5040745;28;20018;-68
2023/06/29 09:21:50;;;;;;;4.95;2.28;;;;;;;22.38;nan;100571.44;5040093;28;20505;-69
2023/06/29 09:24:16;;;;;;;3.88;2.00;;;;;;;22.46;nan;100568.06;5036273;28;20021;-69
2023/06/29 09:26:42;;;;;;;5.22;1.70;;;;;;;22.51;nan;100560.69;5041448;28;20017;-69
2023/06/29 09:29:08;;;;;;;4.32;1.67;;;;;;;22.60;nan;100571.50;5035809;28;20104;-69
2023/06/29 09:31:36;;;;;;;4.47;1.90;;;;;;;22.60;nan;100568.81;5037459;28;20093;-69
2023/06/29 09:34:21;;;;;;;5.20;2.22;;;;;;;22.67;nan;100569.22;5038581;28;20044;-69
2023/06/29 09:36:48;;;;;;;3.13;1.80;;;;;;;22.71;nan;100566.69;5039846;28;20033;-69
2023/06/29 09:39:13;;;;;;;8.35;2.25;;;;;;;22.72;nan;100569.09;5040477;28;20043;-70
2023/06/29 09:41:49;;;;;;;3.42;1.70;;;;;;;;;;5038262;28;20146;-69
2023/06/29 09:44:21;;;;;;;5.65;1.90;;;;;;;22.77;nan;100578.94;5039336;28;20026;-69
2023/06/29 09:46:47;;;;;;;3.17;1.50;;;;;;;22.76;nan;100565.78;5038143;28;20056;-69
2023/06/29 09:49:14;;;;;;;2.65;1.83;;;;;;;22.80;nan;100567.56;5045816;28;20119;-68
2023/06/29 09:51:39;;;;;;;3.47;1.92;;;;;;;22.76;nan;100563.91;5036346;28;20071;-67
2023/06/29 09:54:06;;;;;;;5.80;1.80;;;;;;;22.69;nan;100556.25;5036416;28;20531;-69
2023/06/29 09:56:33;;;;;;;3.58;1.40;;;;;;;22.72;nan;100562.91;5038699;28;20057;-68
2023/06/29 09:59:01;;;;;;;4.07;1.80;;;;;;;22.79;nan;100581.28;5040062;28;20088;-69
2023/06/29 10:01:28;;;;;;;6.03;3.10;;;;;;;;;;5038869;28;20450;-69
2023/06/29 10:03:54;;;;;;;3.55;1.83;;;;;;;22.77;nan;100568.19;5040573;28;20030;-69
2023/06/29 10:06:30;;;;;;;4.45;1.70;;;;;;;22.83;nan;100575.00;5035180;28;20039;-68
2023/06/29 10:08:58;;;;;;;3.38;1.80;;;;;;;22.83;nan;100568.84;5068239;28;20025;-68
2023/06/29 10:11:28;;;;;;;4.07;1.77;;;;;;;22.86;nan;100562.88;5037183;28;20046;-69
2023/06/29 10:13:58;;;;;;;2.97;1.60;;;;;;;22.94;nan;100559.47;5038936;28;20036;-69
2023/06/29 10:16:24;;;;;;;1.92;1.63;;;;;;;23.06;nan;100558.97;5040561;28;20017;-69
2023/06/29 10:18:54;;;;;;;5.82;2.40;;;;;;;23.14;nan;100556.34;5037770;28;20013;-69
2023/06/29 10:21:19;;;;;;;4.07;1.90;;;;;;;23.17;nan;100548.75;5035537;28;20022;-69
2023/06/29 10:23:46;;;;;;;3.85;1.90;;;;;;;23.25;nan;100543.47;5039474;28;20443;-69
2023/06/29 10:26:12;;;;;;;2.67;1.75;;;;;;;23.28;nan;100542.84;5039021;28;20030;-69
2023/06/29 10:28:38;;;;;;;3.65;1.75;;;;;;;23.36;nan;100528.66;5039680;28;20071;-69
2023/06/29 10:31:03;;;;;;;3.63;1.67;;;;;;;23.46;nan;100540.25;5035738;28;20040;-69
2023/06/29 10:33:29;;;;;;;4.00;1.70;;;;;;;23.53;nan;100533.31;5039091;28;20029;-68
2023/06/29 10:35:59;;;;;;;3.55;2.53;;;;;;;23.65;nan;100540.03;5037935;28;20018;-69
2023/06/29 10:38:32;;;;;;;10.65;6.25;;;;;;;23.82;nan;100521.31;5037348;28;20051;-69
2023/06/29 10:40:58;;;;;;;8.88;5.05;;;;;;;23.99;nan;100537.53;5040264;28;20579;-69
2023/06/29 10:43:56;;;;;;;5.00;2.78;;;;;;;24.03;nan;100532.28;5038339;28;20045;-69
2023/06/29 10:46:41;;;;;;;10.50;7.32;;;;;;;24.09;nan;100532.97;5036721;28;20090;-69
2023/06/29 10:49:08;;;;;;;2.92;2.13;;;;;;;23.99;nan;100531.31;5037368;28;20026;-68
2023/06/29 10:51:48;;;;;;;3.97;2.58;;;;;;;23.98;nan;100532.44;5038417;28;20021;-68
2023/06/29 10:54:15;;;;;;;4.70;3.22;;;;;;;23.86;nan;100514.22;5039371;28;20530;-68
2023/06/29 10:56:56;;;;;;;3.25;1.75;;;;;;;23.96;nan;100527.38;5037876;28;20074;-69
2023/06/29 10:59:22;;;;;;;3.53;2.15;;;;;;;24.02;nan;100536.09;5040646;28;20034;-68
2023/06/29 11:01:49;;;;;;;3.42;1.90;;;;;;;24.02;nan;100536.09;5036880;28;20393;-69
2023/06/29 11:04:14;;;;;;;2.30;1.70;;;;;;;23.98;nan;100537.81;5036862;28;20021;-69
2023/06/29 11:06:40;;;;;;;3.22;2.03;;;;;;;23.93;nan;100543.34;5036931;28;20016;-68
2023/06/29 11:09:15;;;;;;;5.93;2.78;;;;;;;23.95;nan;100523.09;5034691;28;20545;-69
2023/06/29 11:11:44;;;;;;;3.38;2.10;;;;;;;24.13;nan;100537.38;5046354;28;20127;-69
2023/06/29 11:14:13;;;;;;;1.95;1.50;;;;;;;24.10;nan;100515.72;5038845;28;20033;-69
2023/06/29 11:16:41;;;;;;;5.00;1.85;;;;;;;24.19;nan;100527.28;5039020;28;20025;-69
2023/06/29 11:19:07;;;;;;;1.70;1.30;;;;;;;24.29;nan;100526.19;5036592;28;20071;-69
2023/06/29 11:21:33;;;;;;;5.90;3.67;;;;;;;24.37;nan;100523.53;5036829;28;20017;-69
2023/06/29 11:23:58;;;;;;;3.13;1.58;;;;;;;24.36;nan;100523.84;5036104;28;20025;-69
2023/06/29 11:26:24;;;;;;;2.97;1.42;;;;;;;24.38;nan;100510.84;5036290;28;20032;-68
2023/06/29 11:28:51;;;;;;;2.13;1.70;;;;;;;24.41;nan;100529.06;5037598;28;20029;-67
2023/06/29 11:31:16;;;;;;;3.75;1.50;;;;;;;24.46;nan;100520.84;5043138;28;20104;-67
2023/06/29 11:33:52;;;;;;;3.47;1.75;;;;;;;24.55;nan;100516.28;5037024;28;20017;-68
2023/06/29 11:36:35;;;;;;;3.13;2.13;;;;;;;24.55;nan;100494.75;5035825;28;20056;-68
2023/06/29 11:39:08;;;;;;;4.40;1.90;;;;;;;24.66;nan;100505.19;5040118;28;20029;-68
2023/06/29 11:41:35;;;;;;;3.95;1.50;;;;;;;24.62;nan;100495.06;5036100;28;20013;-69
2023/06/29 11:44:00;;;;;;;4.97;1.73;;;;;;;24.63;nan;100502.00;5035000;28;20017;-68